createdAt,value
2018-05-11T00:00:11.691Z,2.73
2018-05-11T00:02:38.012Z,2.63
2018-05-11T00:05:04.368Z,3.13
2018-05-11T00:07:30.749Z,2.50
2018-05-11T00:09:57.192Z,2.03
2018-05-11T00:12:23.521Z,2.50
2018-05-11T00:14:49.875Z,2.93
2018-05-11T00:17:16.209Z,2.23
2018-05-11T00:19:42.559Z,2.30
2018-05-11T00:22:09.090Z,2.23
2018-05-11T00:24:35.416Z,2.30
2018-05-11T00:27:01.780Z,2.33
2018-05-11T00:29:28.272Z,2.47
2018-05-11T00:31:54.776Z,2.70
2018-05-11T00:34:21.159Z,2.30
2018-05-11T00:36:48.174Z,2.50
2018-05-11T00:39:14.692Z,2.50
2018-05-11T00:41:41.022Z,2.33
2018-05-11T00:44:07.425Z,2.07
2018-05-11T00:46:33.740Z,2.83
2018-05-11T00:49:00.313Z,2.30
2018-05-11T00:51:28.151Z,2.30
2018-05-11T00:53:54.548Z,2.10
2018-05-11T00:56:20.997Z,2.17
2018-05-11T00:58:47.397Z,2.60
2018-05-11T01:01:13.771Z,2.10
2018-05-11T01:03:40.104Z,2.40
2018-05-11T01:06:06.536Z,2.63
2018-05-11T01:08:32.868Z,2.30
2018-05-11T01:10:59.251Z,2.37
2018-05-11T01:13:25.569Z,2.20
2018-05-11T01:15:51.935Z,2.47
2018-05-11T01:18:18.266Z,2.80
2018-05-11T01:20:44.689Z,2.23
2018-05-11T01:23:11.035Z,2.17
2018-05-11T01:25:37.435Z,2.63
2018-05-11T01:28:03.796Z,2.20
2018-05-11T01:30:30.416Z,2.20
2018-05-11T01:32:56.804Z,2.60
2018-05-11T01:35:23.227Z,2.60
2018-05-11T01:37:49.762Z,2.33
2018-05-11T01:40:16.182Z,2.17
2018-05-11T01:42:42.599Z,2.20
2018-05-11T01:45:09.219Z,1.90
2018-05-11T01:47:35.733Z,2.13
2018-05-11T01:50:02.103Z,3.00
2018-05-11T01:52:28.513Z,2.30
2018-05-11T01:54:54.962Z,2.23
2018-05-11T01:57:21.648Z,2.23
2018-05-11T01:59:48.046Z,2.30
2018-05-11T02:02:14.981Z,2.00
2018-05-11T02:04:41.388Z,2.80
2018-05-11T02:07:08.386Z,2.17
2018-05-11T02:09:34.869Z,2.20
2018-05-11T02:12:01.399Z,2.40
2018-05-11T02:14:27.805Z,2.00
2018-05-11T02:16:54.175Z,2.13
2018-05-11T02:19:20.519Z,3.03
2018-05-11T02:21:47.009Z,1.70
2018-05-11T02:24:13.706Z,2.17
2018-05-11T02:26:40.187Z,2.00
2018-05-11T02:29:06.599Z,2.60
2018-05-11T02:31:33.261Z,2.10
2018-05-11T02:33:59.621Z,2.20
2018-05-11T02:36:25.968Z,1.90
2018-05-11T02:38:52.360Z,2.27
2018-05-11T02:41:18.986Z,1.80
2018-05-11T02:43:45.457Z,2.63
2018-05-11T02:46:11.816Z,2.83
2018-05-11T02:48:38.260Z,2.27
2018-05-11T02:51:04.616Z,1.90
2018-05-11T02:53:31.029Z,2.10
2018-05-11T02:55:58.549Z,1.70
2018-05-11T02:58:25.008Z,2.20
2018-05-11T03:00:51.386Z,1.90
2018-05-11T03:03:17.776Z,2.17
2018-05-11T03:05:44.256Z,2.33
2018-05-11T03:08:10.737Z,1.87
2018-05-11T03:10:37.219Z,2.40
2018-05-11T03:13:03.877Z,1.90
2018-05-11T03:15:30.319Z,1.90
2018-05-11T03:17:56.660Z,2.53
2018-05-11T03:20:23.244Z,2.00
2018-05-11T03:22:49.703Z,3.37
2018-05-11T03:25:16.045Z,2.20
2018-05-11T03:27:42.449Z,2.37
2018-05-11T03:30:08.847Z,1.70
2018-05-11T03:32:35.371Z,2.00
2018-05-11T03:35:01.779Z,2.10
2018-05-11T03:37:28.299Z,2.47
2018-05-11T03:39:54.660Z,2.00
2018-05-11T03:42:21.029Z,2.20
2018-05-11T03:44:47.396Z,3.30
2018-05-11T03:47:13.925Z,2.27
2018-05-11T03:49:40.341Z,2.67
2018-05-11T03:52:06.832Z,1.90
2018-05-11T03:54:33.590Z,3.03
2018-05-11T03:56:59.981Z,14.90
2018-05-11T03:59:26.532Z,11.13
2018-05-11T04:01:52.982Z,8.03
2018-05-11T04:04:19.676Z,6.23
2018-05-11T04:06:46.256Z,8.30
2018-05-11T04:09:13.169Z,6.33
2018-05-11T04:11:39.911Z,2.87
2018-05-11T04:14:06.321Z,8.47
2018-05-11T04:16:32.728Z,2.90
2018-05-11T04:18:59.171Z,7.73
2018-05-11T04:21:25.517Z,2.57
2018-05-11T04:23:51.876Z,3.20
2018-05-11T04:26:18.407Z,3.53
2018-05-11T04:28:44.957Z,5.57
2018-05-11T04:31:11.362Z,3.70
2018-05-11T04:33:37.939Z,2.50
2018-05-11T04:36:04.464Z,6.00
2018-05-11T04:38:30.792Z,3.23
2018-05-11T04:40:57.184Z,3.40
2018-05-11T04:43:23.517Z,2.47
2018-05-11T04:45:49.836Z,3.80
2018-05-11T04:48:16.204Z,3.67
2018-05-11T04:50:42.528Z,5.07
2018-05-11T04:53:10.415Z,2.83
2018-05-11T04:55:36.735Z,2.63
2018-05-11T04:58:03.065Z,4.30
2018-05-11T05:00:29.429Z,4.23
2018-05-11T05:02:55.788Z,12.10
2018-05-11T05:05:22.140Z,8.93
2018-05-11T05:07:48.515Z,12.63
2018-05-11T05:10:14.896Z,12.47
2018-05-11T05:12:41.268Z,7.40
2018-05-11T05:15:07.650Z,3.20
2018-05-11T05:17:33.968Z,13.93
2018-05-11T05:20:00.339Z,6.53
2018-05-11T05:22:26.691Z,11.10
2018-05-11T05:24:53.067Z,6.23
2018-05-11T05:27:19.400Z,9.70
2018-05-11T05:29:45.768Z,4.30
2018-05-11T05:32:12.158Z,6.43
2018-05-11T05:34:38.512Z,7.00
2018-05-11T05:37:04.868Z,5.63
2018-05-11T05:39:31.193Z,4.03
2018-05-11T05:41:57.634Z,6.83
2018-05-11T05:44:23.964Z,7.43
2018-05-11T05:46:50.287Z,3.57
2018-05-11T05:49:16.668Z,4.83
2018-05-11T05:51:43.083Z,4.17
2018-05-11T05:54:09.652Z,5.43
2018-05-11T05:56:35.999Z,10.10
2018-05-11T05:59:02.461Z,4.90
2018-05-11T06:01:29.042Z,9.67
2018-05-11T06:03:55.514Z,5.10
2018-05-11T06:06:22.509Z,7.77
2018-05-11T06:08:48.891Z,3.97
2018-05-11T06:11:15.287Z,3.27
2018-05-11T06:13:41.658Z,4.07
2018-05-11T06:16:08.051Z,4.40
2018-05-11T06:18:34.415Z,10.20
2018-05-11T06:21:00.821Z,11.47
2018-05-11T06:23:27.233Z,3.40
2018-05-11T06:25:53.586Z,4.13
2018-05-11T06:28:20.015Z,7.87
2018-05-11T06:30:46.345Z,6.40
2018-05-11T06:33:12.783Z,10.33
2018-05-11T06:35:39.271Z,11.70
2018-05-11T06:38:05.677Z,4.27
2018-05-11T06:40:32.518Z,5.60
2018-05-11T06:42:59.551Z,3.97
2018-05-11T06:45:25.946Z,9.03
2018-05-11T06:47:52.367Z,5.23
2018-05-11T06:50:20.125Z,6.63
2018-05-11T06:52:46.708Z,10.40
2018-05-11T06:55:13.422Z,4.60
2018-05-11T06:57:39.862Z,20.63
2018-05-11T07:00:06.302Z,7.17
2018-05-11T07:02:32.665Z,3.67
2018-05-11T07:04:59.613Z,7.47
2018-05-11T07:07:26.195Z,4.60
2018-05-11T07:09:52.536Z,4.77
2018-05-11T07:12:19.037Z,4.03
2018-05-11T07:14:45.429Z,6.00
2018-05-11T07:17:11.819Z,6.60
2018-05-11T07:19:38.245Z,8.17
2018-05-11T07:22:04.610Z,6.80
2018-05-11T07:24:31.066Z,4.70
2018-05-11T07:26:57.847Z,10.43
2018-05-11T07:29:24.259Z,8.10
2018-05-11T07:31:51.030Z,11.27
2018-05-11T07:34:17.635Z,6.83
2018-05-11T07:36:44.477Z,7.10
2018-05-11T07:39:11.902Z,13.53
2018-05-11T07:41:38.322Z,4.70
2018-05-11T07:44:04.997Z,11.63
2018-05-11T07:46:31.504Z,7.10
2018-05-11T07:48:58.314Z,12.57
2018-05-11T07:51:24.754Z,7.10
2018-05-11T07:53:51.221Z,10.50
2018-05-11T07:56:17.748Z,6.97
2018-05-11T07:58:44.902Z,6.63
2018-05-11T08:01:11.434Z,7.60
2018-05-11T08:03:38.457Z,7.13
2018-05-11T08:06:05.035Z,10.90
2018-05-11T08:08:31.592Z,4.60
2018-05-11T08:10:58.121Z,7.60
2018-05-11T08:13:28.867Z,5.27
2018-05-11T08:15:57.201Z,8.93
2018-05-11T08:18:24.451Z,11.90
2018-05-11T08:20:51.508Z,5.13
2018-05-11T08:23:19.756Z,6.23
2018-05-11T08:25:47.550Z,12.63
2018-05-11T08:31:01.716Z,5.77
2018-05-11T08:33:30.630Z,7.83
2018-05-11T08:35:57.854Z,11.33
2018-05-11T08:41:14.585Z,6.37
2018-05-11T08:43:44.541Z,6.50
2018-05-11T08:46:12.006Z,7.23
2018-05-11T08:51:24.692Z,10.37
2018-05-11T08:53:51.963Z,8.20
2018-05-11T08:56:19.094Z,10.60
2018-05-11T08:58:46.554Z,15.13
2018-05-11T09:01:13.600Z,5.70
2018-05-11T09:03:40.644Z,10.20
2018-05-11T09:06:08.002Z,8.00
2018-05-11T09:08:35.614Z,3.83
2018-05-11T09:11:02.620Z,14.00
2018-05-11T09:13:30.355Z,11.50
2018-05-11T09:15:57.350Z,6.87
2018-05-11T09:18:24.017Z,7.43
2018-05-11T09:20:50.539Z,7.90
2018-05-11T09:23:17.638Z,4.97
2018-05-11T09:25:46.842Z,9.33
2018-05-11T09:28:13.728Z,10.07
2018-05-11T09:30:41.305Z,16.83
2018-05-11T09:33:08.087Z,17.70
2018-05-11T09:35:35.037Z,8.60
2018-05-11T09:38:01.517Z,9.20
2018-05-11T09:40:35.559Z,8.40
2018-05-11T09:43:02.597Z,6.47
2018-05-11T09:45:29.234Z,9.87
2018-05-11T09:47:55.756Z,5.80
2018-05-11T09:50:22.296Z,8.10
2018-05-11T09:52:49.385Z,9.33
2018-05-11T09:55:15.970Z,12.33
2018-05-11T09:57:42.558Z,10.17
2018-05-11T10:00:09.752Z,15.20
2018-05-11T10:02:36.301Z,18.53
2018-05-11T10:05:02.936Z,9.03
2018-05-11T10:07:29.678Z,11.77
2018-05-11T10:09:56.534Z,8.10
2018-05-11T10:12:23.392Z,7.87
2018-05-11T10:14:50.251Z,7.10
2018-05-11T10:17:17.187Z,11.23
2018-05-11T10:19:50.931Z,7.50
2018-05-11T10:22:17.412Z,9.27
2018-05-11T10:24:43.909Z,5.60
2018-05-11T10:27:10.315Z,8.57
2018-05-11T10:29:36.765Z,9.27
2018-05-11T10:32:03.439Z,16.90
2018-05-11T10:34:30.308Z,6.33
2018-05-11T10:36:56.972Z,6.40
2018-05-11T10:39:23.380Z,10.47
2018-05-11T10:41:49.996Z,12.57
2018-05-11T10:44:16.519Z,8.03
2018-05-11T10:46:42.981Z,14.33
2018-05-11T10:49:16.976Z,9.40
2018-05-11T10:51:43.472Z,6.07
2018-05-11T10:54:10.166Z,5.40
2018-05-11T10:56:37.215Z,9.40
2018-05-11T10:59:03.832Z,10.20
2018-05-11T11:01:30.406Z,7.70
2018-05-11T11:03:56.783Z,9.30
2018-05-11T11:06:23.239Z,8.53
2018-05-11T11:08:49.792Z,6.13
2018-05-11T11:11:16.405Z,10.90
2018-05-11T11:13:42.844Z,9.57
2018-05-11T11:16:09.226Z,6.77
2018-05-11T11:18:35.655Z,10.70
2018-05-11T11:21:02.291Z,11.83
2018-05-11T11:23:29.247Z,11.70
2018-05-11T11:25:55.989Z,12.07
2018-05-11T11:28:22.441Z,8.17
2018-05-11T11:30:49.147Z,7.37
2018-05-11T11:33:16.512Z,8.83
2018-05-11T11:35:44.577Z,8.97
2018-05-11T11:38:11.078Z,6.97
2018-05-11T11:40:37.587Z,7.17
2018-05-11T11:43:04.340Z,6.03
2018-05-11T11:45:31.133Z,4.27
2018-05-11T11:47:57.827Z,5.23
2018-05-11T11:50:24.765Z,9.30
2018-05-11T11:52:51.272Z,9.90
2018-05-11T11:55:17.844Z,11.87
2018-05-11T11:57:44.849Z,6.70
2018-05-11T12:00:11.493Z,8.50
2018-05-11T12:02:37.973Z,7.37
2018-05-11T12:05:04.935Z,14.67
2018-05-11T12:07:31.991Z,13.70
2018-05-11T12:09:58.714Z,10.53
2018-05-11T12:12:26.086Z,7.60
2018-05-11T12:14:52.527Z,6.43
2018-05-11T12:17:18.988Z,7.40
2018-05-11T12:19:45.359Z,12.60
2018-05-11T12:24:44.529Z,8.10
2018-05-11T12:27:11.382Z,4.10
2018-05-11T12:29:46.492Z,6.90
2018-05-11T12:32:13.513Z,5.20
2018-05-11T12:34:40.382Z,8.33
2018-05-11T12:37:07.064Z,12.70
2018-05-11T12:39:34.094Z,10.37
2018-05-11T12:59:41.420Z,5.83
2018-05-11T13:02:07.994Z,7.07
2018-05-11T13:04:34.494Z,6.80
2018-05-11T13:07:01.254Z,5.60
2018-05-11T13:09:28.630Z,10.67
2018-05-11T13:11:55.358Z,7.13
2018-05-11T13:14:22.442Z,10.60
2018-05-11T13:16:49.206Z,7.93
2018-05-11T13:19:16.012Z,3.70
2018-05-11T13:21:43.587Z,5.13
2018-05-11T13:24:10.156Z,12.50
2018-05-11T13:26:36.581Z,13.97
2018-05-11T13:29:02.989Z,4.80
2018-05-11T13:31:29.737Z,8.27
2018-05-11T13:33:56.416Z,8.13
2018-05-11T13:36:23.031Z,6.43
2018-05-11T13:38:50.147Z,7.40
2018-05-11T13:41:16.582Z,7.77
2018-05-11T13:43:43.078Z,6.47
2018-05-11T13:46:09.798Z,9.13
2018-05-11T13:48:36.144Z,6.70
2018-05-11T13:51:02.864Z,4.53
2018-05-11T13:53:29.257Z,4.53
2018-05-11T13:55:55.689Z,7.13
2018-05-11T13:58:22.299Z,4.90
2018-05-11T14:00:48.846Z,4.90
2018-05-11T14:03:15.600Z,4.77
2018-05-11T14:05:42.127Z,7.53
2018-05-11T14:08:08.570Z,7.67
2018-05-11T14:10:35.004Z,7.63
2018-05-11T14:13:01.457Z,3.60
2018-05-11T14:15:27.952Z,5.30
2018-05-11T14:17:54.455Z,8.00
2018-05-11T14:20:20.897Z,6.50
2018-05-11T14:22:47.820Z,5.50
2018-05-11T14:25:14.217Z,9.90
2018-05-11T14:27:40.610Z,6.20
2018-05-11T14:30:07.512Z,7.93
2018-05-11T14:32:33.958Z,13.40
2018-05-11T14:35:00.326Z,11.30
2018-05-11T14:37:26.845Z,11.10
2018-05-11T14:39:53.369Z,6.93
2018-05-11T14:42:19.774Z,9.87
2018-05-11T14:44:46.153Z,8.47
2018-05-11T14:47:12.747Z,6.33
2018-05-11T14:49:39.058Z,5.50
2018-05-11T14:52:05.394Z,3.77
2018-05-11T14:54:31.723Z,7.27
2018-05-11T14:56:58.130Z,3.73
2018-05-11T14:59:24.462Z,5.33
2018-05-11T15:01:50.847Z,5.37
2018-05-11T15:04:17.219Z,6.83
2018-05-11T15:06:43.625Z,3.70
2018-05-11T15:09:10.084Z,5.80
2018-05-11T15:11:36.449Z,3.67
2018-05-11T15:14:02.821Z,4.13
2018-05-11T15:16:29.212Z,5.50
2018-05-11T15:18:55.604Z,4.33
2018-05-11T15:21:22.000Z,3.87
2018-05-11T15:23:48.411Z,6.30
2018-05-11T15:26:14.763Z,4.20
2018-05-11T15:28:41.216Z,7.00
2018-05-11T15:31:07.755Z,3.77
2018-05-11T15:33:34.147Z,5.30
2018-05-11T15:36:00.558Z,7.13
2018-05-11T15:38:27.044Z,2.20
2018-05-11T15:40:53.462Z,9.40
2018-05-11T15:43:19.804Z,3.27
2018-05-11T15:45:46.189Z,4.93
2018-05-11T15:48:12.677Z,2.87
2018-05-11T15:52:59.782Z,7.33
2018-05-11T15:55:26.121Z,5.67
2018-05-11T15:57:52.492Z,5.63
2018-05-11T16:00:18.891Z,5.40
2018-05-11T16:02:45.280Z,2.30
2018-05-11T16:05:11.675Z,3.00
2018-05-11T16:07:38.016Z,6.50
2018-05-11T16:10:04.389Z,2.40
2018-05-11T16:12:30.806Z,2.20
2018-05-11T16:14:57.088Z,2.40
2018-05-11T16:17:23.447Z,3.23
2018-05-11T16:19:49.786Z,2.17
2018-05-11T16:22:16.164Z,4.73
2018-05-11T16:24:42.511Z,8.60
2018-05-11T16:27:08.876Z,4.07
2018-05-11T16:29:35.200Z,2.60
2018-05-11T16:32:01.563Z,5.63
2018-05-11T16:34:27.913Z,3.57
2018-05-11T16:36:54.282Z,4.00
2018-05-11T16:39:20.635Z,2.37
2018-05-11T16:41:46.962Z,7.47
2018-05-11T16:44:13.369Z,2.80
2018-05-11T16:46:39.765Z,4.00
2018-05-11T16:49:06.127Z,4.83
2018-05-11T16:51:32.485Z,4.30
2018-05-11T16:53:58.831Z,6.90
2018-05-11T16:56:25.145Z,3.57
2018-05-11T16:58:51.485Z,2.10
2018-05-11T17:01:17.844Z,4.33
2018-05-11T17:03:44.176Z,3.50
2018-05-11T17:06:10.523Z,2.43
2018-05-11T17:08:36.844Z,8.30
2018-05-11T17:11:03.201Z,2.57
2018-05-11T17:13:29.552Z,3.30
2018-05-11T17:15:55.880Z,3.00
2018-05-11T17:18:22.237Z,5.30
2018-05-11T17:20:48.568Z,4.23
2018-05-11T17:23:14.955Z,2.77
2018-05-11T17:25:41.271Z,3.80
2018-05-11T17:28:07.627Z,4.17
2018-05-11T17:30:33.989Z,4.27
2018-05-11T17:33:00.326Z,4.40
2018-05-11T17:35:26.686Z,2.70
2018-05-11T17:37:53.005Z,3.23
2018-05-11T17:40:19.364Z,2.80
2018-05-11T17:42:45.716Z,3.20
2018-05-11T17:45:12.040Z,3.00
2018-05-11T17:47:38.403Z,3.07
2018-05-11T17:50:04.719Z,5.17
2018-05-11T17:52:31.084Z,2.43
2018-05-11T17:54:57.402Z,2.70
2018-05-11T17:57:23.716Z,3.13
2018-05-11T17:59:50.075Z,4.13
2018-05-11T18:02:16.445Z,2.67
2018-05-11T18:04:42.831Z,3.40
2018-05-11T18:07:09.193Z,5.30
2018-05-11T18:09:35.520Z,3.00
2018-05-11T18:12:01.910Z,2.60
2018-05-11T18:14:28.216Z,3.53
2018-05-11T18:16:54.590Z,3.60
2018-05-11T18:19:20.921Z,3.13
2018-05-11T18:21:47.279Z,2.10
2018-05-11T18:24:13.650Z,2.33
2018-05-11T18:26:39.968Z,2.90
2018-05-11T18:29:06.438Z,3.03
2018-05-11T18:31:32.714Z,2.40
2018-05-11T18:33:59.197Z,2.80
2018-05-11T18:36:25.615Z,2.80
2018-05-11T18:38:51.996Z,2.80
2018-05-11T18:41:18.357Z,2.40
2018-05-11T18:43:44.790Z,4.00
2018-05-11T18:46:11.119Z,2.33
2018-05-11T18:48:37.506Z,3.70
2018-05-11T18:51:03.888Z,4.03
2018-05-11T18:53:30.686Z,2.53
2018-05-11T18:55:56.753Z,3.80
2018-05-11T18:58:23.126Z,2.43
2018-05-11T19:00:49.455Z,4.77
2018-05-11T19:03:15.798Z,3.90
2018-05-11T19:05:42.140Z,2.50
2018-05-11T19:08:08.515Z,2.17
2018-05-11T19:10:34.854Z,2.43
2018-05-11T19:13:01.267Z,2.47
2018-05-11T19:15:27.596Z,2.23
2018-05-11T19:17:53.976Z,3.60
2018-05-11T19:20:20.326Z,3.57
2018-05-11T19:22:46.669Z,2.30
2018-05-11T19:25:13.164Z,5.10
2018-05-11T19:27:39.496Z,2.30
2018-05-11T19:30:05.940Z,2.10
2018-05-11T19:32:32.306Z,2.77
2018-05-11T19:34:58.653Z,2.30
2018-05-11T19:37:24.987Z,2.83
2018-05-11T19:39:51.353Z,2.37
2018-05-11T19:42:17.811Z,2.70
2018-05-11T19:44:45.949Z,2.20
2018-05-11T19:47:12.668Z,2.40
2018-05-11T19:49:39.065Z,3.73
2018-05-11T19:52:05.398Z,2.30
2018-05-11T19:54:31.739Z,3.10
2018-05-11T19:56:58.064Z,2.53
2018-05-11T19:59:24.392Z,2.90
2018-05-11T20:01:50.732Z,2.50
2018-05-11T20:04:17.248Z,2.40
2018-05-11T20:06:43.853Z,2.20
2018-05-11T20:09:10.247Z,3.30
2018-05-11T20:11:36.675Z,2.77
2018-05-11T20:14:03.058Z,2.93
2018-05-11T20:16:29.475Z,2.33
2018-05-11T20:18:55.813Z,3.40
2018-05-11T20:21:22.148Z,2.40
2018-05-11T20:23:48.464Z,2.20
2018-05-11T20:26:14.856Z,4.67
2018-05-11T20:28:41.203Z,2.50
2018-05-11T20:31:07.596Z,2.43
2018-05-11T20:33:33.944Z,2.73
2018-05-11T20:36:00.325Z,2.33
2018-05-11T20:38:26.718Z,3.50
2018-05-11T20:40:53.067Z,2.20
2018-05-11T20:43:19.477Z,2.93
2018-05-11T20:45:45.837Z,2.83
2018-05-11T20:48:12.221Z,2.50
2018-05-11T20:50:38.557Z,2.53
2018-05-11T20:53:04.916Z,3.13
2018-05-11T20:55:31.252Z,2.50
2018-05-11T20:57:57.620Z,2.50
2018-05-11T21:00:23.946Z,2.43
2018-05-11T21:02:50.275Z,2.47
2018-05-11T21:05:16.704Z,2.50
2018-05-11T21:07:43.055Z,2.60
2018-05-11T21:10:09.375Z,2.57
2018-05-11T21:12:35.754Z,2.47
2018-05-11T21:15:02.076Z,2.60
2018-05-11T21:17:28.399Z,2.10
2018-05-11T21:19:54.740Z,3.60
2018-05-11T21:22:21.089Z,2.10
2018-05-11T21:24:47.469Z,2.10
2018-05-11T21:27:13.935Z,2.30
2018-05-11T21:29:40.239Z,2.70
2018-05-11T21:32:06.553Z,2.23
2018-05-11T21:34:32.907Z,2.53
2018-05-11T21:36:59.231Z,2.23
2018-05-11T21:39:25.625Z,4.27
2018-05-11T21:41:51.993Z,2.50
2018-05-11T21:44:18.359Z,2.60
2018-05-11T21:46:44.684Z,2.50
2018-05-11T21:49:11.027Z,2.53
2018-05-11T21:51:37.538Z,2.50
2018-05-11T21:54:03.890Z,3.03
2018-05-11T21:56:30.238Z,2.60
2018-05-11T21:58:56.735Z,2.57
2018-05-11T22:01:23.105Z,4.57
2018-05-11T22:03:49.528Z,2.53
2018-05-11T22:06:15.888Z,2.67
2018-05-11T22:08:42.373Z,2.60
2018-05-11T22:11:08.853Z,2.93
2018-05-11T22:13:35.230Z,2.53
2018-05-11T22:16:01.605Z,2.17
2018-05-11T22:18:28.117Z,2.20
2018-05-11T22:20:54.492Z,2.43
2018-05-11T22:23:20.911Z,2.53
2018-05-11T22:25:47.233Z,2.30
2018-05-11T22:28:13.604Z,2.37
2018-05-11T22:30:39.912Z,2.30
2018-05-11T22:33:06.382Z,2.63
2018-05-11T22:35:32.755Z,2.43
2018-05-11T22:37:59.116Z,2.33
2018-05-11T22:40:25.528Z,2.70
2018-05-11T22:42:51.891Z,2.67
2018-05-11T22:45:18.247Z,2.47
2018-05-11T22:47:44.637Z,2.23
2018-05-11T22:50:11.103Z,2.50
2018-05-11T22:52:37.463Z,2.63
2018-05-11T22:55:03.782Z,2.63
2018-05-11T22:57:30.127Z,3.00
2018-05-11T22:59:56.530Z,2.73
2018-05-11T23:02:22.905Z,2.40
2018-05-11T23:04:49.239Z,2.40
2018-05-11T23:07:15.572Z,2.40
2018-05-11T23:09:42.030Z,2.90
2018-05-11T23:12:08.448Z,2.53
2018-05-11T23:14:34.809Z,2.40
2018-05-11T23:17:01.193Z,2.37
2018-05-11T23:19:27.529Z,2.43
2018-05-11T23:21:53.875Z,2.30
2018-05-11T23:24:20.198Z,2.30
2018-05-11T23:26:46.524Z,2.53
2018-05-11T23:29:12.917Z,2.03
2018-05-11T23:31:39.232Z,2.73
2018-05-11T23:34:05.568Z,2.17
2018-05-11T23:36:31.936Z,2.20
2018-05-11T23:38:58.282Z,2.30
2018-05-11T23:41:24.627Z,2.47
2018-05-11T23:43:51.024Z,2.50
2018-05-11T23:46:17.410Z,2.40
2018-05-11T23:48:43.811Z,2.10
2018-05-11T23:51:10.173Z,2.47
2018-05-11T23:53:36.585Z,2.23
2018-05-11T23:56:02.977Z,2.50
2018-05-11T23:58:29.308Z,3.00
